sensor_id;sensor_type;location;lat;lon;timestamp;P1;durP1;ratioP1;P2;durP2;ratioP2
56477;SDS011;42382;53.210;5.772;2023-08-30T00:00:36;6.22;;;4.00;;
56477;SDS011;42382;53.210;5.772;2023-08-30T00:03:02;4.53;;;4.10;;
56477;SDS011;42382;53.210;5.772;2023-08-30T00:05:28;4.95;;;3.30;;
56477;SDS011;42382;53.210;5.772;2023-08-30T00:07:54;5.00;;;3.53;;
56477;SDS011;42382;53.210;5.772;2023-08-30T00:10:19;6.13;;;3.13;;
56477;SDS011;42382;53.210;5.772;2023-08-30T00:12:45;3.38;;;3.08;;
56477;SDS011;42382;53.210;5.772;2023-08-30T00:15:11;4.55;;;3.20;;
56477;SDS011;42382;53.210;5.772;2023-08-30T00:17:36;4.35;;;3.35;;
56477;SDS011;42382;53.210;5.772;2023-08-30T00:20:02;5.15;;;3.65;;
56477;SDS011;42382;53.210;5.772;2023-08-30T00:22:28;3.63;;;3.20;;
56477;SDS011;42382;53.210;5.772;2023-08-30T00:24:54;6.32;;;3.78;;
56477;SDS011;42382;53.210;5.772;2023-08-30T00:27:20;5.43;;;4.03;;
56477;SDS011;42382;53.210;5.772;2023-08-30T00:29:46;5.30;;;4.15;;
56477;SDS011;42382;53.210;5.772;2023-08-30T00:32:12;5.80;;;3.83;;
56477;SDS011;42382;53.210;5.772;2023-08-30T00:34:38;4.68;;;3.83;;
56477;SDS011;42382;53.210;5.772;2023-08-30T00:37:04;4.90;;;4.40;;
56477;SDS011;42382;53.210;5.772;2023-08-30T00:39:29;6.93;;;4.32;;
56477;SDS011;42382;53.210;5.772;2023-08-30T00:41:55;6.45;;;4.88;;
56477;SDS011;42382;53.210;5.772;2023-08-30T00:44:20;4.65;;;4.18;;
56477;SDS011;42382;53.210;5.772;2023-08-30T00:46:46;6.15;;;4.93;;
56477;SDS011;42382;53.210;5.772;2023-08-30T00:49:12;7.88;;;5.20;;
56477;SDS011;42382;53.210;5.772;2023-08-30T00:51:38;7.70;;;4.70;;
56477;SDS011;42382;53.210;5.772;2023-08-30T00:54:05;5.45;;;4.57;;
56477;SDS011;42382;53.210;5.772;2023-08-30T00:56:32;7.55;;;4.68;;
56477;SDS011;42382;53.210;5.772;2023-08-30T00:58:58;5.35;;;4.18;;
56477;SDS011;42382;53.210;5.772;2023-08-30T01:01:25;7.10;;;4.65;;
56477;SDS011;42382;53.210;5.772;2023-08-30T01:03:51;6.07;;;4.30;;
56477;SDS011;42382;53.210;5.772;2023-08-30T01:06:17;4.82;;;4.32;;
56477;SDS011;42382;53.210;5.772;2023-08-30T01:08:42;7.47;;;4.80;;
56477;SDS011;42382;53.210;5.772;2023-08-30T01:11:13;6.43;;;4.15;;
56477;SDS011;42382;53.210;5.772;2023-08-30T01:13:53;5.07;;;4.13;;
56477;SDS011;42382;53.210;5.772;2023-08-30T01:16:26;4.85;;;4.32;;
56477;SDS011;42382;53.210;5.772;2023-08-30T01:18:53;5.85;;;4.45;;
56477;SDS011;42382;53.210;5.772;2023-08-30T01:21:26;5.93;;;4.43;;
56477;SDS011;42382;53.210;5.772;2023-08-30T01:24:04;5.38;;;4.28;;
56477;SDS011;42382;53.210;5.772;2023-08-30T01:29:21;7.25;;;4.15;;
56477;SDS011;42382;53.210;5.772;2023-08-30T01:31:48;5.85;;;4.13;;
56477;SDS011;42382;53.210;5.772;2023-08-30T01:34:14;6.55;;;4.53;;
56477;SDS011;42382;53.210;5.772;2023-08-30T01:36:40;4.80;;;4.00;;
56477;SDS011;42382;53.210;5.772;2023-08-30T01:39:08;4.72;;;4.15;;
56477;SDS011;42382;53.210;5.772;2023-08-30T01:41:35;5.72;;;4.60;;
56477;SDS011;42382;53.210;5.772;2023-08-30T01:44:03;7.35;;;4.80;;
56477;SDS011;42382;53.210;5.772;2023-08-30T01:46:32;6.15;;;4.22;;
56477;SDS011;42382;53.210;5.772;2023-08-30T01:49:01;7.43;;;4.82;;
56477;SDS011;42382;53.210;5.772;2023-08-30T01:51:28;5.25;;;4.65;;
56477;SDS011;42382;53.210;5.772;2023-08-30T01:53:54;8.00;;;5.18;;
56477;SDS011;42382;53.210;5.772;2023-08-30T01:56:21;6.38;;;4.50;;
56477;SDS011;42382;53.210;5.772;2023-08-30T01:58:47;7.25;;;4.72;;
56477;SDS011;42382;53.210;5.772;2023-08-30T02:01:13;5.95;;;5.32;;
56477;SDS011;42382;53.210;5.772;2023-08-30T02:03:38;6.35;;;5.30;;
56477;SDS011;42382;53.210;5.772;2023-08-30T02:06:09;7.22;;;4.80;;
56477;SDS011;42382;53.210;5.772;2023-08-30T02:08:40;9.45;;;5.20;;
56477;SDS011;42382;53.210;5.772;2023-08-30T02:11:11;7.22;;;5.35;;
56477;SDS011;42382;53.210;5.772;2023-08-30T02:13:42;5.38;;;4.70;;
56477;SDS011;42382;53.210;5.772;2023-08-30T02:16:09;7.45;;;5.45;;
56477;SDS011;42382;53.210;5.772;2023-08-30T02:18:37;7.13;;;6.15;;
56477;SDS011;42382;53.210;5.772;2023-08-30T02:21:03;6.13;;;5.43;;
56477;SDS011;42382;53.210;5.772;2023-08-30T02:23:29;6.30;;;5.70;;
56477;SDS011;42382;53.210;5.772;2023-08-30T02:25:58;9.02;;;6.63;;
56477;SDS011;42382;53.210;5.772;2023-08-30T02:28:23;7.72;;;6.63;;
56477;SDS011;42382;53.210;5.772;2023-08-30T02:30:50;9.38;;;6.88;;
56477;SDS011;42382;53.210;5.772;2023-08-30T02:33:18;8.85;;;7.57;;
56477;SDS011;42382;53.210;5.772;2023-08-30T02:35:43;6.72;;;6.03;;
56477;SDS011;42382;53.210;5.772;2023-08-30T02:38:10;8.25;;;6.65;;
56477;SDS011;42382;53.210;5.772;2023-08-30T02:40:35;7.72;;;6.85;;
56477;SDS011;42382;53.210;5.772;2023-08-30T02:43:01;7.70;;;6.13;;
56477;SDS011;42382;53.210;5.772;2023-08-30T02:45:27;8.02;;;6.85;;
56477;SDS011;42382;53.210;5.772;2023-08-30T02:47:54;8.02;;;6.70;;
56477;SDS011;42382;53.210;5.772;2023-08-30T02:50:22;7.63;;;5.97;;
56477;SDS011;42382;53.210;5.772;2023-08-30T02:52:48;7.90;;;6.43;;
56477;SDS011;42382;53.210;5.772;2023-08-30T02:55:13;7.22;;;6.50;;
56477;SDS011;42382;53.210;5.772;2023-08-30T02:57:39;8.50;;;7.00;;
56477;SDS011;42382;53.210;5.772;2023-08-30T03:00:05;8.32;;;6.90;;
56477;SDS011;42382;53.210;5.772;2023-08-30T03:02:31;7.72;;;6.43;;
56477;SDS011;42382;53.210;5.772;2023-08-30T03:05:00;8.23;;;6.65;;
56477;SDS011;42382;53.210;5.772;2023-08-30T03:07:28;7.15;;;6.43;;
56477;SDS011;42382;53.210;5.772;2023-08-30T03:09:54;9.05;;;6.78;;
56477;SDS011;42382;53.210;5.772;2023-08-30T03:12:20;10.80;;;7.57;;
56477;SDS011;42382;53.210;5.772;2023-08-30T03:14:46;8.88;;;7.88;;
56477;SDS011;42382;53.210;5.772;2023-08-30T03:17:12;9.57;;;7.90;;
56477;SDS011;42382;53.210;5.772;2023-08-30T03:19:38;9.70;;;7.57;;
56477;SDS011;42382;53.210;5.772;2023-08-30T03:22:03;9.75;;;8.65;;
56477;SDS011;42382;53.210;5.772;2023-08-30T03:24:29;12.60;;;8.63;;
56477;SDS011;42382;53.210;5.772;2023-08-30T03:26:54;14.70;;;9.45;;
56477;SDS011;42382;53.210;5.772;2023-08-30T03:29:20;11.57;;;8.45;;
56477;SDS011;42382;53.210;5.772;2023-08-30T03:31:46;10.95;;;8.90;;
56477;SDS011;42382;53.210;5.772;2023-08-30T03:34:12;10.30;;;9.20;;
56477;SDS011;42382;53.210;5.772;2023-08-30T03:36:38;10.82;;;9.48;;
56477;SDS011;42382;53.210;5.772;2023-08-30T03:39:04;11.00;;;8.90;;
56477;SDS011;42382;53.210;5.772;2023-08-30T03:41:30;12.43;;;9.75;;
56477;SDS011;42382;53.210;5.772;2023-08-30T03:43:55;10.45;;;9.20;;
56477;SDS011;42382;53.210;5.772;2023-08-30T03:46:21;12.55;;;9.98;;
56477;SDS011;42382;53.210;5.772;2023-08-30T03:48:47;13.68;;;10.23;;
56477;SDS011;42382;53.210;5.772;2023-08-30T03:51:12;11.65;;;10.05;;
56477;SDS011;42382;53.210;5.772;2023-08-30T03:53:38;13.55;;;9.95;;
56477;SDS011;42382;53.210;5.772;2023-08-30T03:56:03;13.05;;;9.93;;
56477;SDS011;42382;53.210;5.772;2023-08-30T03:58:29;16.25;;;10.50;;
56477;SDS011;42382;53.210;5.772;2023-08-30T04:00:55;14.77;;;11.13;;
56477;SDS011;42382;53.210;5.772;2023-08-30T04:03:21;12.93;;;10.63;;
56477;SDS011;42382;53.210;5.772;2023-08-30T04:05:47;14.85;;;10.60;;
56477;SDS011;42382;53.210;5.772;2023-08-30T04:08:13;11.20;;;10.02;;
56477;SDS011;42382;53.210;5.772;2023-08-30T04:10:39;14.95;;;10.95;;
56477;SDS011;42382;53.210;5.772;2023-08-30T04:13:06;15.02;;;11.70;;
56477;SDS011;42382;53.210;5.772;2023-08-30T04:15:34;14.10;;;11.68;;
56477;SDS011;42382;53.210;5.772;2023-08-30T04:18:00;13.93;;;11.55;;
56477;SDS011;42382;53.210;5.772;2023-08-30T04:20:27;13.95;;;11.60;;
56477;SDS011;42382;53.210;5.772;2023-08-30T04:22:52;16.25;;;11.65;;
56477;SDS011;42382;53.210;5.772;2023-08-30T04:25:20;19.30;;;13.25;;
56477;SDS011;42382;53.210;5.772;2023-08-30T04:27:46;15.70;;;11.48;;
56477;SDS011;42382;53.210;5.772;2023-08-30T04:30:12;14.60;;;11.95;;
56477;SDS011;42382;53.210;5.772;2023-08-30T04:32:38;15.90;;;12.95;;
56477;SDS011;42382;53.210;5.772;2023-08-30T04:35:05;16.70;;;12.93;;
56477;SDS011;42382;53.210;5.772;2023-08-30T04:37:31;14.10;;;12.43;;
56477;SDS011;42382;53.210;5.772;2023-08-30T04:39:56;17.95;;;12.77;;
56477;SDS011;42382;53.210;5.772;2023-08-30T04:42:22;16.13;;;13.05;;
56477;SDS011;42382;53.210;5.772;2023-08-30T04:44:48;15.20;;;11.90;;
56477;SDS011;42382;53.210;5.772;2023-08-30T04:47:14;18.38;;;13.98;;
56477;SDS011;42382;53.210;5.772;2023-08-30T04:49:39;15.32;;;12.10;;
56477;SDS011;42382;53.210;5.772;2023-08-30T04:52:05;15.80;;;11.68;;
56477;SDS011;42382;53.210;5.772;2023-08-30T04:54:31;14.43;;;12.00;;
56477;SDS011;42382;53.210;5.772;2023-08-30T04:56:56;14.93;;;12.52;;
56477;SDS011;42382;53.210;5.772;2023-08-30T04:59:22;16.95;;;12.55;;
56477;SDS011;42382;53.210;5.772;2023-08-30T05:01:48;19.45;;;12.82;;
56477;SDS011;42382;53.210;5.772;2023-08-30T05:04:14;13.00;;;11.23;;
56477;SDS011;42382;53.210;5.772;2023-08-30T05:06:40;19.58;;;13.65;;
56477;SDS011;42382;53.210;5.772;2023-08-30T05:09:06;17.45;;;13.30;;
56477;SDS011;42382;53.210;5.772;2023-08-30T05:11:31;16.08;;;12.52;;
56477;SDS011;42382;53.210;5.772;2023-08-30T05:13:57;16.95;;;13.00;;
56477;SDS011;42382;53.210;5.772;2023-08-30T05:16:22;17.58;;;11.82;;
56477;SDS011;42382;53.210;5.772;2023-08-30T05:18:48;14.73;;;12.00;;
56477;SDS011;42382;53.210;5.772;2023-08-30T05:21:14;13.98;;;11.77;;
56477;SDS011;42382;53.210;5.772;2023-08-30T05:23:39;18.15;;;13.45;;
56477;SDS011;42382;53.210;5.772;2023-08-30T05:26:11;15.88;;;13.75;;
56477;SDS011;42382;53.210;5.772;2023-08-30T05:28:39;14.57;;;12.57;;
56477;SDS011;42382;53.210;5.772;2023-08-30T05:31:05;15.95;;;12.73;;
56477;SDS011;42382;53.210;5.772;2023-08-30T05:33:31;16.63;;;12.52;;
56477;SDS011;42382;53.210;5.772;2023-08-30T05:35:56;19.88;;;13.35;;
56477;SDS011;42382;53.210;5.772;2023-08-30T05:38:22;18.55;;;13.23;;
56477;SDS011;42382;53.210;5.772;2023-08-30T05:40:48;15.82;;;12.70;;
56477;SDS011;42382;53.210;5.772;2023-08-30T05:43:13;15.68;;;12.07;;
56477;SDS011;42382;53.210;5.772;2023-08-30T05:45:40;18.27;;;14.27;;
56477;SDS011;42382;53.210;5.772;2023-08-30T05:48:06;17.08;;;12.48;;
56477;SDS011;42382;53.210;5.772;2023-08-30T05:50:31;17.92;;;12.70;;
56477;SDS011;42382;53.210;5.772;2023-08-30T05:52:57;17.85;;;13.50;;
56477;SDS011;42382;53.210;5.772;2023-08-30T05:55:22;18.42;;;13.20;;
56477;SDS011;42382;53.210;5.772;2023-08-30T05:57:48;17.50;;;12.43;;
56477;SDS011;42382;53.210;5.772;2023-08-30T06:00:14;15.93;;;11.85;;
56477;SDS011;42382;53.210;5.772;2023-08-30T06:02:40;16.02;;;13.27;;
56477;SDS011;42382;53.210;5.772;2023-08-30T06:05:06;15.35;;;12.48;;
56477;SDS011;42382;53.210;5.772;2023-08-30T06:07:32;16.65;;;12.38;;
56477;SDS011;42382;53.210;5.772;2023-08-30T06:09:58;18.20;;;12.20;;
56477;SDS011;42382;53.210;5.772;2023-08-30T06:12:24;16.63;;;12.50;;
56477;SDS011;42382;53.210;5.772;2023-08-30T06:14:50;15.90;;;12.65;;
56477;SDS011;42382;53.210;5.772;2023-08-30T06:17:21;17.10;;;12.25;;
56477;SDS011;42382;53.210;5.772;2023-08-30T06:19:47;15.77;;;12.13;;
56477;SDS011;42382;53.210;5.772;2023-08-30T06:22:13;16.35;;;12.60;;
56477;SDS011;42382;53.210;5.772;2023-08-30T06:24:39;16.35;;;12.73;;
56477;SDS011;42382;53.210;5.772;2023-08-30T06:27:04;16.23;;;12.38;;
56477;SDS011;42382;53.210;5.772;2023-08-30T06:29:30;17.77;;;12.80;;
56477;SDS011;42382;53.210;5.772;2023-08-30T06:31:57;16.58;;;12.27;;
56477;SDS011;42382;53.210;5.772;2023-08-30T06:34:23;13.77;;;11.57;;
56477;SDS011;42382;53.210;5.772;2023-08-30T06:36:49;15.75;;;12.00;;
56477;SDS011;42382;53.210;5.772;2023-08-30T06:39:14;13.68;;;10.85;;
56477;SDS011;42382;53.210;5.772;2023-08-30T06:41:40;14.20;;;11.45;;
56477;SDS011;42382;53.210;5.772;2023-08-30T06:44:06;16.02;;;11.68;;
56477;SDS011;42382;53.210;5.772;2023-08-30T06:46:31;16.65;;;10.68;;
56477;SDS011;42382;53.210;5.772;2023-08-30T06:48:57;16.17;;;12.30;;
56477;SDS011;42382;53.210;5.772;2023-08-30T06:51:23;15.40;;;11.23;;
56477;SDS011;42382;53.210;5.772;2023-08-30T06:53:48;15.10;;;10.85;;
56477;SDS011;42382;53.210;5.772;2023-08-30T06:56:14;14.90;;;10.75;;
56477;SDS011;42382;53.210;5.772;2023-08-30T06:58:40;15.48;;;11.15;;
56477;SDS011;42382;53.210;5.772;2023-08-30T07:01:05;14.80;;;10.25;;
56477;SDS011;42382;53.210;5.772;2023-08-30T07:03:31;17.75;;;10.43;;
56477;SDS011;42382;53.210;5.772;2023-08-30T07:05:56;14.48;;;10.57;;
56477;SDS011;42382;53.210;5.772;2023-08-30T07:08:22;15.23;;;10.50;;
56477;SDS011;42382;53.210;5.772;2023-08-30T07:10:48;14.93;;;11.02;;
56477;SDS011;42382;53.210;5.772;2023-08-30T07:13:14;17.10;;;9.40;;
56477;SDS011;42382;53.210;5.772;2023-08-30T07:15:40;13.57;;;9.20;;
56477;SDS011;42382;53.210;5.772;2023-08-30T07:18:06;14.45;;;10.60;;
56477;SDS011;42382;53.210;5.772;2023-08-30T07:20:32;13.98;;;10.10;;
56477;SDS011;42382;53.210;5.772;2023-08-30T07:22:59;16.90;;;10.50;;
56477;SDS011;42382;53.210;5.772;2023-08-30T07:25:24;13.88;;;10.32;;
56477;SDS011;42382;53.210;5.772;2023-08-30T07:27:50;16.38;;;11.35;;
56477;SDS011;42382;53.210;5.772;2023-08-30T07:30:16;14.93;;;10.80;;
56477;SDS011;42382;53.210;5.772;2023-08-30T07:32:41;14.68;;;10.05;;
56477;SDS011;42382;53.210;5.772;2023-08-30T07:35:07;15.52;;;10.63;;
56477;SDS011;42382;53.210;5.772;2023-08-30T07:37:33;13.77;;;10.07;;
56477;SDS011;42382;53.210;5.772;2023-08-30T07:40:00;16.58;;;10.77;;
56477;SDS011;42382;53.210;5.772;2023-08-30T07:42:26;16.65;;;10.23;;
56477;SDS011;42382;53.210;5.772;2023-08-30T07:44:52;15.35;;;11.73;;
56477;SDS011;42382;53.210;5.772;2023-08-30T07:47:18;15.05;;;9.57;;
56477;SDS011;42382;53.210;5.772;2023-08-30T07:49:43;15.57;;;10.80;;
56477;SDS011;42382;53.210;5.772;2023-08-30T07:52:09;13.60;;;10.20;;
56477;SDS011;42382;53.210;5.772;2023-08-30T07:54:36;12.55;;;8.88;;
56477;SDS011;42382;53.210;5.772;2023-08-30T07:57:02;13.35;;;8.85;;
56477;SDS011;42382;53.210;5.772;2023-08-30T07:59:29;14.45;;;8.82;;
56477;SDS011;42382;53.210;5.772;2023-08-30T08:01:54;13.27;;;9.88;;
56477;SDS011;42382;53.210;5.772;2023-08-30T08:04:20;13.57;;;9.75;;
56477;SDS011;42382;53.210;5.772;2023-08-30T08:06:46;14.77;;;10.00;;
56477;SDS011;42382;53.210;5.772;2023-08-30T08:09:12;13.43;;;9.40;;
56477;SDS011;42382;53.210;5.772;2023-08-30T08:11:38;14.70;;;9.50;;
56477;SDS011;42382;53.210;5.772;2023-08-30T08:14:08;12.45;;;9.07;;
56477;SDS011;42382;53.210;5.772;2023-08-30T08:16:34;13.77;;;9.88;;
56477;SDS011;42382;53.210;5.772;2023-08-30T08:19:00;13.35;;;9.30;;
56477;SDS011;42382;53.210;5.772;2023-08-30T08:21:26;10.68;;;8.73;;
56477;SDS011;42382;53.210;5.772;2023-08-30T08:23:52;12.55;;;7.57;;
56477;SDS011;42382;53.210;5.772;2023-08-30T08:26:17;16.55;;;7.18;;
56477;SDS011;42382;53.210;5.772;2023-08-30T08:28:44;9.85;;;6.88;;
56477;SDS011;42382;53.210;5.772;2023-08-30T08:31:09;10.48;;;6.75;;
56477;SDS011;42382;53.210;5.772;2023-08-30T08:33:35;11.02;;;6.95;;
56477;SDS011;42382;53.210;5.772;2023-08-30T08:36:01;15.60;;;7.90;;
56477;SDS011;42382;53.210;5.772;2023-08-30T08:38:27;10.32;;;6.18;;
56477;SDS011;42382;53.210;5.772;2023-08-30T08:40:53;7.95;;;5.88;;
56477;SDS011;42382;53.210;5.772;2023-08-30T08:43:26;10.15;;;5.93;;
56477;SDS011;42382;53.210;5.772;2023-08-30T08:45:54;12.10;;;5.95;;
56477;SDS011;42382;53.210;5.772;2023-08-30T08:48:21;9.05;;;5.45;;
56477;SDS011;42382;53.210;5.772;2023-08-30T08:50:48;10.80;;;5.10;;
56477;SDS011;42382;53.210;5.772;2023-08-30T08:53:14;8.65;;;6.25;;
56477;SDS011;42382;53.210;5.772;2023-08-30T08:55:40;7.85;;;5.95;;
56477;SDS011;42382;53.210;5.772;2023-08-30T08:58:08;8.60;;;6.13;;
56477;SDS011;42382;53.210;5.772;2023-08-30T09:00:34;7.63;;;4.68;;
56477;SDS011;42382;53.210;5.772;2023-08-30T09:03:00;7.13;;;4.68;;
56477;SDS011;42382;53.210;5.772;2023-08-30T09:05:26;5.88;;;4.47;;
56477;SDS011;42382;53.210;5.772;2023-08-30T09:07:53;9.77;;;4.55;;
56477;SDS011;42382;53.210;5.772;2023-08-30T09:10:20;7.05;;;4.00;;
56477;SDS011;42382;53.210;5.772;2023-08-30T09:12:46;5.93;;;4.20;;
56477;SDS011;42382;53.210;5.772;2023-08-30T09:15:13;7.55;;;4.55;;
56477;SDS011;42382;53.210;5.772;2023-08-30T09:17:40;7.65;;;4.13;;
56477;SDS011;42382;53.210;5.772;2023-08-30T09:20:08;5.60;;;4.63;;
56477;SDS011;42382;53.210;5.772;2023-08-30T09:22:41;5.88;;;4.00;;
56477;SDS011;42382;53.210;5.772;2023-08-30T09:25:08;8.77;;;4.30;;
56477;SDS011;42382;53.210;5.772;2023-08-30T09:27:34;6.35;;;4.10;;
56477;SDS011;42382;53.210;5.772;2023-08-30T09:30:00;6.50;;;4.10;;
56477;SDS011;42382;53.210;5.772;2023-08-30T09:32:26;6.53;;;4.13;;
56477;SDS011;42382;53.210;5.772;2023-08-30T09:34:52;7.50;;;4.65;;
56477;SDS011;42382;53.210;5.772;2023-08-30T09:37:19;5.60;;;4.43;;
56477;SDS011;42382;53.210;5.772;2023-08-30T09:39:51;8.68;;;4.63;;
56477;SDS011;42382;53.210;5.772;2023-08-30T09:42:18;7.70;;;4.80;;
56477;SDS011;42382;53.210;5.772;2023-08-30T09:44:44;6.60;;;4.65;;
56477;SDS011;42382;53.210;5.772;2023-08-30T09:47:12;6.65;;;4.95;;
56477;SDS011;42382;53.210;5.772;2023-08-30T09:49:43;5.13;;;3.80;;
56477;SDS011;42382;53.210;5.772;2023-08-30T09:52:10;5.97;;;4.10;;
56477;SDS011;42382;53.210;5.772;2023-08-30T09:54:38;5.65;;;3.63;;
56477;SDS011;42382;53.210;5.772;2023-08-30T09:57:06;4.47;;;3.08;;
56477;SDS011;42382;53.210;5.772;2023-08-30T09:59:32;6.43;;;3.63;;
56477;SDS011;42382;53.210;5.772;2023-08-30T10:01:58;6.22;;;2.92;;
56477;SDS011;42382;53.210;5.772;2023-08-30T10:04:27;4.25;;;3.35;;
56477;SDS011;42382;53.210;5.772;2023-08-30T10:06:54;6.30;;;3.45;;
56477;SDS011;42382;53.210;5.772;2023-08-30T10:09:22;6.80;;;3.55;;
56477;SDS011;42382;53.210;5.772;2023-08-30T10:11:49;5.70;;;4.30;;
56477;SDS011;42382;53.210;5.772;2023-08-30T10:14:16;5.10;;;3.47;;
56477;SDS011;42382;53.210;5.772;2023-08-30T10:16:46;6.95;;;3.72;;
56477;SDS011;42382;53.210;5.772;2023-08-30T10:19:15;6.18;;;4.03;;
56477;SDS011;42382;53.210;5.772;2023-08-30T10:21:43;5.70;;;3.90;;
56477;SDS011;42382;53.210;5.772;2023-08-30T10:24:09;3.88;;;3.05;;
56477;SDS011;42382;53.210;5.772;2023-08-30T10:26:37;5.07;;;3.40;;
56477;SDS011;42382;53.210;5.772;2023-08-30T10:29:03;7.88;;;3.88;;
56477;SDS011;42382;53.210;5.772;2023-08-30T10:31:30;5.95;;;3.72;;
56477;SDS011;42382;53.210;5.772;2023-08-30T10:33:56;7.43;;;3.50;;
56477;SDS011;42382;53.210;5.772;2023-08-30T10:36:23;6.05;;;3.97;;
56477;SDS011;42382;53.210;5.772;2023-08-30T10:38:53;7.13;;;4.18;;
56477;SDS011;42382;53.210;5.772;2023-08-30T10:41:19;7.60;;;4.68;;
56477;SDS011;42382;53.210;5.772;2023-08-30T10:43:49;7.68;;;5.05;;
56477;SDS011;42382;53.210;5.772;2023-08-30T10:46:16;6.80;;;5.03;;
56477;SDS011;42382;53.210;5.772;2023-08-30T10:48:42;6.15;;;4.63;;
56477;SDS011;42382;53.210;5.772;2023-08-30T10:51:21;6.60;;;4.82;;
56477;SDS011;42382;53.210;5.772;2023-08-30T10:53:59;7.40;;;5.50;;
56477;SDS011;42382;53.210;5.772;2023-08-30T10:56:31;5.95;;;4.38;;
56477;SDS011;42382;53.210;5.772;2023-08-30T10:59:01;4.60;;;3.92;;
56477;SDS011;42382;53.210;5.772;2023-08-30T11:01:27;6.18;;;4.80;;
56477;SDS011;42382;53.210;5.772;2023-08-30T11:03:54;6.03;;;4.57;;
56477;SDS011;42382;53.210;5.772;2023-08-30T11:06:21;6.10;;;4.85;;
56477;SDS011;42382;53.210;5.772;2023-08-30T11:08:47;5.97;;;4.32;;
56477;SDS011;42382;53.210;5.772;2023-08-30T11:11:13;6.15;;;4.80;;
56477;SDS011;42382;53.210;5.772;2023-08-30T11:13:39;7.57;;;4.38;;
56477;SDS011;42382;53.210;5.772;2023-08-30T11:16:05;7.38;;;5.65;;
56477;SDS011;42382;53.210;5.772;2023-08-30T11:18:36;7.18;;;4.80;;
56477;SDS011;42382;53.210;5.772;2023-08-30T11:21:03;6.10;;;5.28;;
56477;SDS011;42382;53.210;5.772;2023-08-30T11:23:29;5.55;;;4.57;;
56477;SDS011;42382;53.210;5.772;2023-08-30T11:25:55;6.15;;;4.78;;
56477;SDS011;42382;53.210;5.772;2023-08-30T11:28:24;6.38;;;5.03;;
56477;SDS011;42382;53.210;5.772;2023-08-30T11:30:53;7.35;;;5.50;;
56477;SDS011;42382;53.210;5.772;2023-08-30T11:33:19;9.32;;;5.50;;
56477;SDS011;42382;53.210;5.772;2023-08-30T11:35:45;7.85;;;5.97;;
56477;SDS011;42382;53.210;5.772;2023-08-30T11:38:14;9.93;;;6.22;;
56477;SDS011;42382;53.210;5.772;2023-08-30T11:40:40;8.25;;;5.97;;
56477;SDS011;42382;53.210;5.772;2023-08-30T11:43:06;8.88;;;6.03;;
56477;SDS011;42382;53.210;5.772;2023-08-30T11:45:32;7.65;;;6.07;;
56477;SDS011;42382;53.210;5.772;2023-08-30T11:48:01;9.35;;;6.75;;
56477;SDS011;42382;53.210;5.772;2023-08-30T11:50:27;9.95;;;6.32;;
56477;SDS011;42382;53.210;5.772;2023-08-30T11:52:54;9.40;;;5.68;;
56477;SDS011;42382;53.210;5.772;2023-08-30T11:55:20;8.63;;;5.25;;
56477;SDS011;42382;53.210;5.772;2023-08-30T11:57:49;8.00;;;5.50;;
56477;SDS011;42382;53.210;5.772;2023-08-30T12:00:18;7.63;;;5.65;;
56477;SDS011;42382;53.210;5.772;2023-08-30T12:02:45;6.88;;;5.88;;
56477;SDS011;42382;53.210;5.772;2023-08-30T12:05:15;9.68;;;5.82;;
56477;SDS011;42382;53.210;5.772;2023-08-30T12:07:42;6.30;;;5.70;;
56477;SDS011;42382;53.210;5.772;2023-08-30T12:10:08;9.48;;;5.75;;
56477;SDS011;42382;53.210;5.772;2023-08-30T12:12:35;9.18;;;6.65;;
56477;SDS011;42382;53.210;5.772;2023-08-30T12:15:08;6.13;;;5.53;;
56477;SDS011;42382;53.210;5.772;2023-08-30T12:17:37;6.70;;;4.90;;
56477;SDS011;42382;53.210;5.772;2023-08-30T12:20:03;8.38;;;5.40;;
56477;SDS011;42382;53.210;5.772;2023-08-30T12:22:38;6.55;;;5.55;;
56477;SDS011;42382;53.210;5.772;2023-08-30T12:25:15;6.55;;;4.28;;
56477;SDS011;42382;53.210;5.772;2023-08-30T12:27:44;6.97;;;5.45;;
56477;SDS011;42382;53.210;5.772;2023-08-30T12:30:10;8.23;;;5.00;;
56477;SDS011;42382;53.210;5.772;2023-08-30T12:32:36;7.25;;;4.47;;
56477;SDS011;42382;53.210;5.772;2023-08-30T12:35:01;4.72;;;3.85;;
56477;SDS011;42382;53.210;5.772;2023-08-30T12:37:28;4.75;;;3.83;;
56477;SDS011;42382;53.210;5.772;2023-08-30T12:39:53;3.70;;;3.28;;
56477;SDS011;42382;53.210;5.772;2023-08-30T12:42:19;4.75;;;3.40;;
56477;SDS011;42382;53.210;5.772;2023-08-30T12:44:44;4.40;;;3.20;;
56477;SDS011;42382;53.210;5.772;2023-08-30T12:47:11;4.45;;;3.70;;
56477;SDS011;42382;53.210;5.772;2023-08-30T12:49:39;4.68;;;3.70;;
56477;SDS011;42382;53.210;5.772;2023-08-30T12:52:05;5.22;;;3.35;;
56477;SDS011;42382;53.210;5.772;2023-08-30T12:54:31;5.18;;;3.83;;
56477;SDS011;42382;53.210;5.772;2023-08-30T12:56:56;4.10;;;3.70;;
56477;SDS011;42382;53.210;5.772;2023-08-30T12:59:22;5.07;;;3.80;;
56477;SDS011;42382;53.210;5.772;2023-08-30T13:01:49;3.80;;;2.85;;
56477;SDS011;42382;53.210;5.772;2023-08-30T13:04:15;2.92;;;2.45;;
56477;SDS011;42382;53.210;5.772;2023-08-30T13:06:40;4.03;;;3.28;;
56477;SDS011;42382;53.210;5.772;2023-08-30T13:09:06;3.22;;;2.45;;
56477;SDS011;42382;53.210;5.772;2023-08-30T13:11:32;3.95;;;2.58;;
56477;SDS011;42382;53.210;5.772;2023-08-30T13:13:57;3.95;;;2.70;;
56477;SDS011;42382;53.210;5.772;2023-08-30T13:16:23;3.05;;;2.70;;
56477;SDS011;42382;53.210;5.772;2023-08-30T13:18:49;3.28;;;2.65;;
56477;SDS011;42382;53.210;5.772;2023-08-30T13:21:15;3.60;;;3.15;;
56477;SDS011;42382;53.210;5.772;2023-08-30T13:23:41;3.75;;;2.97;;
56477;SDS011;42382;53.210;5.772;2023-08-30T13:26:06;3.42;;;2.95;;
56477;SDS011;42382;53.210;5.772;2023-08-30T13:28:32;2.83;;;2.58;;
56477;SDS011;42382;53.210;5.772;2023-08-30T13:30:59;5.95;;;3.30;;
56477;SDS011;42382;53.210;5.772;2023-08-30T13:33:25;4.35;;;2.95;;
56477;SDS011;42382;53.210;5.772;2023-08-30T13:35:52;5.30;;;3.45;;
56477;SDS011;42382;53.210;5.772;2023-08-30T13:38:18;4.68;;;3.63;;
56477;SDS011;42382;53.210;5.772;2023-08-30T13:40:44;4.25;;;2.72;;
56477;SDS011;42382;53.210;5.772;2023-08-30T13:43:09;5.05;;;3.00;;
56477;SDS011;42382;53.210;5.772;2023-08-30T13:45:35;4.32;;;2.10;;
56477;SDS011;42382;53.210;5.772;2023-08-30T13:48:01;4.95;;;2.40;;
56477;SDS011;42382;53.210;5.772;2023-08-30T13:50:27;4.55;;;2.05;;
56477;SDS011;42382;53.210;5.772;2023-08-30T13:52:55;4.03;;;1.90;;
56477;SDS011;42382;53.210;5.772;2023-08-30T13:55:21;3.80;;;1.48;;
56477;SDS011;42382;53.210;5.772;2023-08-30T13:57:47;7.47;;;2.53;;
56477;SDS011;42382;53.210;5.772;2023-08-30T14:00:13;5.47;;;0.98;;
56477;SDS011;42382;53.210;5.772;2023-08-30T14:02:39;8.60;;;1.45;;
56477;SDS011;42382;53.210;5.772;2023-08-30T14:05:04;4.93;;;1.02;;
56477;SDS011;42382;53.210;5.772;2023-08-30T14:07:31;6.60;;;1.05;;
56477;SDS011;42382;53.210;5.772;2023-08-30T14:09:56;3.65;;;0.82;;
56477;SDS011;42382;53.210;5.772;2023-08-30T14:12:23;7.35;;;0.90;;
56477;SDS011;42382;53.210;5.772;2023-08-30T14:14:48;5.93;;;0.98;;
56477;SDS011;42382;53.210;5.772;2023-08-30T14:17:14;4.90;;;1.10;;
56477;SDS011;42382;53.210;5.772;2023-08-30T14:19:40;3.83;;;0.68;;
56477;SDS011;42382;53.210;5.772;2023-08-30T14:22:06;8.65;;;1.13;;
56477;SDS011;42382;53.210;5.772;2023-08-30T14:24:32;6.88;;;1.00;;
56477;SDS011;42382;53.210;5.772;2023-08-30T14:26:58;3.85;;;0.55;;
56477;SDS011;42382;53.210;5.772;2023-08-30T14:29:25;4.30;;;0.60;;
56477;SDS011;42382;53.210;5.772;2023-08-30T14:31:51;3.88;;;0.30;;
56477;SDS011;42382;53.210;5.772;2023-08-30T14:34:16;5.40;;;0.57;;
56477;SDS011;42382;53.210;5.772;2023-08-30T14:36:42;4.95;;;0.50;;